Terminal Aerodrome Forecast
Issued by NWS

Home | Current Version | Previous Version | Graphics & Text | Print | Product List | Glossary Off
Versions: 1 2 3 4 5 6 7 8 9 10 11 12 13 14 15 16 17 18

000
FTUS43 KICT 271052
TAFRSL
TAF
KRSL 271052Z 2712/2812 03011KT P6SM BKN004
     FM271500 03012KT P6SM SCT009 BKN015
     FM271700 04012KT P6SM SCT035=

USA.gov is the U.S. government's official web portal to all federal, state and local government web resources and services.